Time;durP1;ratioP1;P1;durP2;ratioP2;P2;SDS_P1;SDS_P2;PMS_P1;PMS_P2;Temp;Humidity;BMP_temperature;BMP_pressure;BME280_temperature;BME280_humidity;BME280_pressure;Samples;Min_cycle;Max_cycle;Signal;HPM_P1;HPM_P2
2021/01/28 00:01:21;;;;;;;49.75;23.40;;;;;;;-0.18;94.78;98946.66;1744169;82;20955;-34
2021/01/28 00:03:49;;;;;;;54.30;22.10;;;;;;;-0.18;94.79;98950.48;1744093;81;21206;-34
2021/01/28 00:06:20;;;;;;;36.58;20.25;;;;;;;-0.16;94.75;98945.38;1744023;82;21054;-34
2021/01/28 00:08:49;;;;;;;46.53;23.00;;;;;;;-0.18;94.76;98949.62;1744147;82;21070;-32
2021/01/28 00:11:17;;;;;;;37.70;22.35;;;;;;;-0.19;94.78;98946.65;1744055;82;20994;-31
2021/01/28 00:13:45;;;;;;;46.98;21.73;;;;;;;-0.16;94.81;98936.47;1744166;82;21011;-35
2021/01/28 00:16:13;;;;;;;39.60;20.52;;;;;;;-0.14;94.80;98943.68;1744144;82;21213;-33
2021/01/28 00:18:41;;;;;;;46.20;22.37;;;;;;;-0.13;94.77;98936.91;1743982;81;20947;-33
2021/01/28 00:21:09;;;;;;;47.35;22.17;;;;;;;-0.15;94.73;98935.22;1744107;82;20971;-34
2021/01/28 00:23:38;;;;;;;45.60;21.75;;;;;;;-0.15;94.73;98925.05;1744090;81;20995;-33
2021/01/28 00:26:06;;;;;;;44.73;22.30;;;;;;;-0.11;94.75;98917.00;1744144;82;20976;-33
2021/01/28 00:28:34;;;;;;;49.80;22.35;;;;;;;-0.06;94.81;98916.98;1744102;82;21390;-32
2021/01/28 00:31:02;;;;;;;38.67;21.85;;;;;;;-0.08;94.79;98913.18;1744036;82;20924;-33
2021/01/28 00:33:31;;;;;;;51.83;21.42;;;;;;;-0.10;94.72;98907.25;1744141;82;20952;-34
2021/01/28 00:35:59;;;;;;;37.98;20.82;;;;;;;-0.15;94.65;98898.73;1744052;82;20912;-34
2021/01/28 00:38:30;;;;;;;43.90;21.55;;;;;;;-0.17;94.64;98905.52;1744037;82;21003;-34
2021/01/28 00:41:02;;;;;;;35.92;21.20;;;;;;;-0.19;94.67;98899.59;1741148;82;21493;-34
2021/01/28 00:43:29;;;;;;;32.98;19.10;;;;;;;-0.20;94.66;98902.98;1735979;82;20936;-33
2021/01/28 00:45:59;;;;;;;33.60;19.60;;;;;;;-0.22;94.65;98901.73;1735994;82;20992;-33
2021/01/28 00:48:28;;;;;;;31.93;17.90;;;;;;;-0.21;94.63;98899.61;1735812;82;20983;-32
2021/01/28 00:50:59;;;;;;;35.25;19.62;;;;;;;-0.27;94.63;98891.95;1735880;82;21079;-32
2021/01/28 00:53:27;;;;;;;37.33;20.02;;;;;;;-0.30;94.66;98902.98;1735901;82;21212;-32
2021/01/28 00:55:56;;;;;;;42.03;20.60;;;;;;;-0.32;94.67;98902.14;1735915;82;21107;-33
2021/01/28 00:58:41;;;;;;;37.38;19.48;;;;;;;-0.32;94.66;98893.23;1735181;82;20932;-32
2021/01/28 01:01:10;;;;;;;39.90;18.90;;;;;;;-0.32;94.71;98891.10;1735883;82;21035;-33
2021/01/28 01:03:38;;;;;;;33.90;20.82;;;;;;;-0.31;94.79;98883.48;1735945;82;20983;-33
2021/01/28 01:06:09;;;;;;;36.53;20.57;;;;;;;-0.32;94.76;98876.70;1715464;82;21281;-33
2021/01/28 01:08:37;;;;;;;27.55;16.48;;;;;;;-0.34;94.71;98882.22;1735920;82;21346;-33
2021/01/28 01:11:11;;;;;;;43.40;22.80;;;;;;;-0.35;94.72;98880.94;1734893;82;21444;-34
2021/01/28 01:13:40;;;;;;;41.48;19.70;;;;;;;-0.38;94.77;98874.58;1735928;82;20924;-35
2021/01/28 01:16:25;;;;;;;38.13;21.53;;;;;;;-0.39;94.83;98871.61;1735261;82;21565;-34
2021/01/28 01:18:54;;;;;;;33.78;18.95;;;;;;;-0.40;94.83;98864.39;1735238;82;21299;-34
2021/01/28 01:21:23;;;;;;;39.18;21.25;;;;;;;-0.41;94.84;98862.70;1735890;82;20936;-33
2021/01/28 01:23:52;;;;;;;37.33;21.57;;;;;;;-0.44;94.88;98860.16;1733905;82;20928;-34
2021/01/28 01:26:21;;;;;;;38.00;20.97;;;;;;;-0.41;94.86;98856.34;1735915;82;21004;-34
2021/01/28 01:28:50;;;;;;;41.77;22.62;;;;;;;-0.40;94.84;98859.30;1735936;82;20968;-33
2021/01/28 01:31:20;;;;;;;34.90;21.30;;;;;;;-0.37;94.85;98857.20;1734333;82;21006;-32
2021/01/28 01:33:49;;;;;;;39.88;21.85;;;;;;;-0.37;94.89;98855.52;1735794;82;21458;-32
2021/01/28 01:36:17;;;;;;;33.20;20.97;;;;;;;-0.33;94.87;98854.67;1735857;82;21024;-33
2021/01/28 01:38:47;;;;;;;37.95;21.60;;;;;;;-0.30;94.79;98849.58;1735297;82;20959;-33
2021/01/28 01:41:15;;;;;;;38.02;22.85;;;;;;;-0.33;94.81;98849.58;1736567;81;20995;-34
2021/01/28 01:43:45;;;;;;;44.80;23.27;;;;;;;-0.33;94.88;98848.31;1735845;82;21365;-32
2021/01/28 01:46:13;;;;;;;37.58;21.90;;;;;;;-0.30;94.90;98844.91;1735790;82;21051;-34
2021/01/28 01:48:51;;;;;;;37.58;22.20;;;;;;;-0.26;94.84;98845.77;1735935;82;21603;-32
2021/01/28 01:51:30;;;;;;;38.20;21.80;;;;;;;-0.26;94.84;98841.50;1715378;82;20932;-32
2021/01/28 01:54:06;;;;;;;42.53;22.45;;;;;;;-0.27;94.85;98838.98;1735715;82;20999;-33
2021/01/28 01:56:40;;;;;;;36.75;21.23;;;;;;;-0.29;94.85;98833.88;1731988;82;21341;-33
2021/01/28 01:59:23;;;;;;;35.08;19.57;;;;;;;-0.30;94.84;98830.50;1735821;82;21577;-32
2021/01/28 02:02:13;;;;;;;40.85;22.48;;;;;;;-0.30;94.87;98824.15;1735769;82;20976;-34
2021/01/28 02:05:04;;;;;;;39.20;21.52;;;;;;;-0.34;94.90;98826.27;1735777;82;20986;-33
2021/01/28 02:07:50;;;;;;;38.98;20.65;;;;;;;-0.32;94.92;98818.63;1735830;82;20928;-33
2021/01/28 02:10:36;;;;;;;39.80;21.65;;;;;;;-0.34;94.88;98821.19;1735883;82;21217;-33
2021/01/28 02:13:24;;;;;;;32.40;19.27;;;;;;;-0.36;94.91;98819.07;1735740;82;20944;-32
2021/01/28 02:15:53;;;;;;;35.50;20.70;;;;;;;-0.36;94.94;98813.13;1702637;84;21042;-32
2021/01/28 02:18:23;;;;;;;35.92;19.02;;;;;;;-0.39;94.95;98815.67;1680448;84;20948;-33
2021/01/28 02:21:31;;;;;;;41.25;21.93;;;;;;;-0.38;94.93;98825.86;1695264;84;21011;-33
2021/01/28 02:24:30;;;;;;;42.80;21.17;;;;;;;-0.40;94.96;98823.70;1695076;84;21462;-33
2021/01/28 02:26:58;;;;;;;40.78;22.05;;;;;;;-0.42;95.05;98827.95;1664105;84;21042;-31
2021/01/28 02:29:45;;;;;;;;;;;;;;;-0.41;95.11;98833.89;1698433;84;21026;-34
2021/01/28 02:32:13;;;;;;;33.20;18.73;;;;;;;-0.40;95.12;98847.86;1695887;84;20213;-33
2021/01/28 02:34:44;;;;;;;43.85;22.80;;;;;;;-0.42;95.16;98862.27;1666450;84;21070;-33
2021/01/28 02:37:20;;;;;;;40.38;21.30;;;;;;;-0.45;95.16;98869.91;1730504;82;21372;-34
2021/01/28 02:39:52;;;;;;;41.98;22.05;;;;;;;-0.48;95.17;98864.41;1735757;82;20956;-33
2021/01/28 02:42:31;;;;;;;40.58;21.77;;;;;;;-0.48;95.14;98847.88;1740810;82;20928;-35
2021/01/28 02:45:01;;;;;;;40.92;22.65;;;;;;;-0.48;95.14;98849.16;1741785;82;21038;-33
2021/01/28 02:47:59;;;;;;;48.95;21.00;;;;;;;-0.49;95.16;98851.69;1749871;82;20963;-35
2021/01/28 02:50:41;;;;;;;46.15;23.27;;;;;;;-0.49;95.21;98850.41;1748809;82;21395;-34
2021/01/28 02:53:09;;;;;;;43.48;23.02;;;;;;;-0.48;95.23;98857.19;1749857;82;21077;-34
2021/01/28 02:57:17;;;;;;;45.55;24.55;;;;;;;-0.39;95.18;98842.37;1816168;79;21917;-33
2021/01/28 02:59:47;;;;;;;55.20;25.17;;;;;;;-0.40;95.14;98846.59;1788408;80;20905;-32
2021/01/28 03:02:18;;;;;;;56.35;25.62;;;;;;;-0.40;95.14;98852.12;1789383;80;21454;-34
2021/01/28 03:04:46;;;;;;;51.18;24.45;;;;;;;-0.36;95.16;98852.13;1789148;80;20955;-33
2021/01/28 03:07:16;;;;;;;40.38;22.73;;;;;;;-0.32;95.17;98843.65;1789001;80;20975;-35
2021/01/28 03:09:44;;;;;;;48.13;23.98;;;;;;;-0.30;95.10;98839.81;1789269;80;21061;-34
2021/01/28 03:12:29;;;;;;;41.75;23.87;;;;;;;-0.28;95.10;98848.29;1787096;80;21500;-36
2021/01/28 03:14:59;;;;;;;38.83;21.85;;;;;;;-0.23;95.11;98846.62;1788862;80;21364;-35
2021/01/28 03:17:27;;;;;;;43.52;23.57;;;;;;;-0.20;95.08;98854.25;1789212;80;20998;-33
2021/01/28 03:19:57;;;;;;;45.98;22.75;;;;;;;-0.18;95.05;98842.78;1788859;80;20947;-33
2021/01/28 03:22:26;;;;;;;38.85;20.85;;;;;;;-0.18;95.02;98840.23;1789295;80;20926;-33
2021/01/28 03:25:13;;;;;;;44.08;23.87;;;;;;;-0.15;95.04;98832.19;1787407;80;20974;-33
2021/01/28 03:27:40;;;;;;;43.45;22.27;;;;;;;-0.20;94.94;98827.54;1789208;80;21384;-33
2021/01/28 03:30:12;;;;;;;38.85;21.25;;;;;;;-0.25;94.89;98834.33;1789205;80;20939;-32
2021/01/28 03:32:40;;;;;;;46.00;24.10;;;;;;;-0.28;94.94;98826.67;1789103;80;20947;-34
2021/01/28 03:35:09;;;;;;;55.52;25.72;;;;;;;-0.32;95.02;98832.20;1789109;80;20923;-34
2021/01/28 03:37:36;;;;;;;42.48;23.95;;;;;;;-0.32;95.03;98834.75;1789267;80;21148;-34
2021/01/28 03:40:06;;;;;;;53.78;25.68;;;;;;;-0.32;95.04;98842.78;1789212;80;21211;-33
2021/01/28 03:42:34;;;;;;;49.35;24.43;;;;;;;-0.32;95.04;98850.41;1758539;80;20900;-33
2021/01/28 03:45:05;;;;;;;55.43;24.82;;;;;;;-0.31;95.08;98850.43;1789138;80;21251;-35
2021/01/28 03:47:33;;;;;;;50.55;24.57;;;;;;;-0.28;95.13;98849.56;1789172;80;20999;-32
2021/01/28 03:50:07;;;;;;;47.48;24.35;;;;;;;-0.25;95.10;98851.27;1785866;80;20911;-32
2021/01/28 03:52:36;;;;;;;46.05;24.40;;;;;;;-0.23;95.07;98851.70;1789160;80;21444;-34
2021/01/28 03:55:15;;;;;;;54.33;26.10;;;;;;;-0.20;95.10;98841.53;1784236;80;21054;-34
2021/01/28 03:57:48;;;;;;;49.55;24.35;;;;;;;-0.21;95.05;98847.47;1775655;80;20940;-33
2021/01/28 04:00:29;;;;;;;40.00;23.38;;;;;;;-0.17;95.11;98859.73;1775646;80;20999;-34
2021/01/28 04:03:00;;;;;;;44.08;23.62;;;;;;;-0.13;95.08;98858.88;1775232;80;20995;-35
2021/01/28 04:05:46;;;;;;;45.40;22.52;;;;;;;-0.11;95.03;98862.72;1775700;80;21218;-34
2021/01/28 04:08:33;;;;;;;51.25;26.02;;;;;;;-0.11;95.06;98875.02;1774982;80;20994;-34
2021/01/28 04:11:19;;;;;;;56.18;25.75;;;;;;;-0.14;95.01;98875.00;1775079;80;21007;-36
2021/01/28 04:13:48;;;;;;;53.20;25.85;;;;;;;-0.12;95.04;98874.59;1775106;80;20952;-37
2021/01/28 04:16:17;;;;;;;53.23;25.20;;;;;;;-0.11;95.01;98876.30;1775126;80;21387;-35
2021/01/28 04:18:45;;;;;;;42.40;22.70;;;;;;;-0.11;95.03;98877.56;1753431;80;22166;-35
2021/01/28 04:21:15;;;;;;;52.60;23.02;;;;;;;-0.10;95.01;98873.31;1772269;80;20988;-35
2021/01/28 04:23:44;;;;;;;45.40;25.15;;;;;;;-0.09;95.00;98877.55;1775157;80;20987;-35
2021/01/28 04:26:18;;;;;;;44.27;23.07;;;;;;;-0.12;94.99;98873.33;1774654;80;21443;-34
2021/01/28 04:28:48;;;;;;;46.92;25.10;;;;;;;-0.09;95.02;98867.38;1774946;80;20920;-36
2021/01/28 04:31:35;;;;;;;42.93;21.30;;;;;;;-0.13;95.03;98869.06;1775154;80;22615;-34
2021/01/28 04:34:05;;;;;;;46.85;24.43;;;;;;;-0.15;94.97;98858.03;1774409;80;21463;-34
2021/01/28 04:36:34;;;;;;;37.35;21.37;;;;;;;-0.18;94.95;98854.23;1775026;80;20971;-34
2021/01/28 04:39:20;;;;;;;;;;;;;;;-0.21;95.01;98855.50;1777770;80;21010;-35
2021/01/28 04:41:49;;;;;;;38.13;21.42;;;;;;;-0.23;95.07;98859.34;1775120;80;20167;-35
2021/01/28 04:44:17;;;;;;;37.10;20.50;;;;;;;-0.24;95.06;98866.95;1775047;80;21159;-34
2021/01/28 04:46:54;;;;;;;37.30;20.72;;;;;;;-0.27;95.04;98861.43;1771037;80;21463;-34
2021/01/28 04:49:33;;;;;;;41.25;22.35;;;;;;;-0.30;95.05;98856.34;1717237;83;21075;-33
2021/01/28 04:52:19;;;;;;;38.23;21.23;;;;;;;-0.34;95.07;98857.20;1775100;80;21042;-36
2021/01/28 04:54:53;;;;;;;40.65;22.02;;;;;;;-0.35;95.14;98856.77;1772310;80;20995;-34
2021/01/28 04:57:23;;;;;;;36.63;21.48;;;;;;;-0.35;95.18;98853.83;1778281;80;21494;-34
2021/01/28 04:59:53;;;;;;;37.85;21.75;;;;;;;-0.33;95.25;98856.34;1780894;80;20983;-32
2021/01/28 05:02:26;;;;;;;40.40;20.90;;;;;;;-0.31;95.27;98854.65;1752608;80;22069;-33
2021/01/28 05:05:05;;;;;;;35.63;20.82;;;;;;;-0.28;95.25;98851.27;1780759;80;20991;-33
2021/01/28 05:07:36;;;;;;;39.20;20.37;;;;;;;-0.26;95.25;98848.30;1775244;80;21430;-33
2021/01/28 05:10:30;;;;;;;31.40;18.50;;;;;;;-0.27;95.25;98846.61;1780867;80;21436;-34
2021/01/28 05:13:30;;;;;;;32.65;16.67;;;;;;;-0.25;95.24;98843.64;1780699;80;20892;-34
2021/01/28 05:16:32;;;;;;;29.80;15.45;;;;;;;-0.28;95.20;98834.30;1777270;80;21010;-33
2021/01/28 05:19:39;;;;;;;37.93;20.62;;;;;;;-0.30;95.17;98840.67;1780793;80;20987;-33
2021/01/28 05:22:37;;;;;;;37.78;20.50;;;;;;;-0.26;95.21;98850.41;1848723;77;20918;-34
2021/01/28 05:25:34;;;;;;;37.75;21.00;;;;;;;-0.28;95.23;98861.01;1817177;79;20909;-33
2021/01/28 05:28:37;;;;;;;41.23;20.55;;;;;;;-0.23;95.26;98859.75;1818066;79;21393;-33
2021/01/28 05:31:30;;;;;;;35.17;20.08;;;;;;;-0.19;95.22;98866.52;1818061;79;20921;-35
2021/01/28 05:34:30;;;;;;;34.25;20.02;;;;;;;-0.14;95.28;98862.28;1818029;79;20917;-35
2021/01/28 05:37:22;;;;;;;37.17;20.95;;;;;;;-0.12;95.26;98857.20;1817962;79;20903;-34
2021/01/28 05:40:18;;;;;;;40.63;19.55;;;;;;;-0.12;95.24;98859.75;1818090;79;20855;-33
2021/01/28 05:42:48;;;;;;;33.83;19.45;;;;;;;-0.10;95.16;98859.32;1815531;79;21490;-33
2021/01/28 05:45:36;;;;;;;46.68;22.10;;;;;;;-0.09;95.15;98865.69;1818028;79;20975;-33
2021/01/28 05:48:27;;;;;;;38.90;20.20;;;;;;;-0.04;95.24;98860.58;1814207;79;20926;-34
2021/01/28 05:51:16;;;;;;;43.98;19.65;;;;;;;0.02;95.27;98875.86;1815746;79;21417;-35
2021/01/28 05:54:04;;;;;;;49.70;20.97;;;;;;;0.03;95.15;98871.20;1803315;79;20923;-35
2021/01/28 05:56:56;;;;;;;37.45;20.70;;;;;;;-0.01;95.11;98874.16;1817396;79;21194;-33
2021/01/28 05:59:37;;;;;;;42.85;20.32;;;;;;;-0.01;95.10;98870.75;1817142;79;20887;-36
2021/01/28 06:02:18;;;;;;;38.17;19.70;;;;;;;0.07;95.15;98874.56;1797318;77;27907;-33
2021/01/28 06:05:27;;;;;;;41.70;20.62;;;;;;;0.09;95.09;98880.50;1698256;80;21010;-35
2021/01/28 06:08:25;;;;;;;46.98;21.73;;;;;;;0.17;94.96;98872.86;1754200;80;21352;-33
2021/01/28 06:11:40;;;;;;;53.63;20.23;;;;;;;0.21;94.88;98869.05;1784204;80;21021;-33
2021/01/28 06:14:33;;;;;;;39.33;20.32;;;;;;;0.25;94.91;98873.28;1783705;80;20923;-33
2021/01/28 06:17:44;;;;;;;50.05;20.85;;;;;;;0.27;94.91;98875.39;1783540;80;20935;-34
2021/01/28 06:20:59;;;;;;;41.70;20.50;;;;;;;0.28;94.89;98872.44;1784193;80;20994;-34
2021/01/28 06:23:52;;;;;;;60.45;23.35;;;;;;;0.29;94.83;98860.13;1784275;80;22259;-33
2021/01/28 06:26:57;;;;;;;47.08;21.05;;;;;;;0.28;94.91;98860.54;1784032;80;21033;-34
2021/01/28 06:29:52;;;;;;;42.38;19.73;;;;;;;0.30;94.90;98862.23;1753208;80;21512;-34
2021/01/28 06:32:52;;;;;;;47.73;20.95;;;;;;;0.26;94.93;98860.97;1784280;80;20927;-34
2021/01/28 06:36:03;;;;;;;44.45;21.52;;;;;;;0.24;94.96;98869.04;1784248;80;20983;-36
2021/01/28 06:38:57;;;;;;;44.13;21.57;;;;;;;0.25;94.98;98872.41;1754917;80;22234;-35
2021/01/28 06:41:36;;;;;;;35.50;20.05;;;;;;;0.31;95.08;98868.61;1779774;80;20935;-38
2021/01/28 06:44:20;;;;;;;42.27;19.95;;;;;;;0.36;95.12;98869.84;1781481;80;21054;-37
2021/01/28 06:47:06;;;;;;;41.13;21.35;;;;;;;0.40;95.18;98871.56;1707000;80;20908;-37
2021/01/28 06:50:00;;;;;;;42.88;23.38;;;;;;;0.45;95.22;98882.99;1784213;80;21041;-35
2021/01/28 06:53:00;;;;;;;47.93;22.30;;;;;;;0.48;95.23;98877.48;1783586;80;21305;-36
2021/01/28 06:55:51;;;;;;;49.95;23.67;;;;;;;0.49;95.16;98877.03;1779647;80;21081;-36
2021/01/28 06:59:01;;;;;;;;;;;;;;;0.49;95.12;98877.89;1786813;80;20958;-35
2021/01/28 07:01:42;;;;;;;46.53;22.27;;;;;;;0.51;95.09;98876.19;1789628;80;20119;-36
2021/01/28 07:04:31;;;;;;;39.33;20.85;;;;;;;0.53;95.08;98876.20;1790282;80;20997;-36
2021/01/28 07:07:18;;;;;;;37.80;20.32;;;;;;;0.54;95.05;98872.80;1792639;80;21209;-35
2021/01/28 07:10:24;;;;;;;38.83;20.45;;;;;;;0.55;95.11;98856.23;1793569;80;20926;-35
2021/01/28 07:12:54;;;;;;;38.53;21.70;;;;;;;0.61;95.18;98868.52;1754976;80;21057;-34
2021/01/28 07:15:49;;;;;;;34.38;19.48;;;;;;;0.67;95.30;98866.80;1768984;80;20883;-34
2021/01/28 07:18:41;;;;;;;39.95;21.55;;;;;;;0.76;95.46;98869.74;1791056;80;21014;-35
2021/01/28 07:21:30;;;;;;;44.55;21.23;;;;;;;0.92;95.74;98872.24;1793092;80;22324;-34
2021/01/28 07:24:07;;;;;;;37.48;20.52;;;;;;;1.10;95.93;98874.68;1792953;80;20947;-36
2021/01/28 07:26:54;;;;;;;39.58;19.98;;;;;;;1.35;96.13;98888.56;1847702;76;22312;-34
2021/01/28 07:29:35;;;;;;;49.40;20.40;;;;;;;1.44;96.22;98885.12;1818162;78;21112;-35
2021/01/28 07:32:06;;;;;;;38.30;20.32;;;;;;;1.54;96.22;98887.19;1818062;79;21308;-33
2021/01/28 07:34:36;;;;;;;43.10;20.77;;;;;;;1.64;96.18;98881.19;1815996;79;20943;-34
2021/01/28 07:37:27;;;;;;;38.10;19.12;;;;;;;1.71;96.13;98887.06;1787388;79;20982;-35
2021/01/28 07:40:50;;;;;;;38.17;19.07;;;;;;;1.76;96.08;98875.56;1818065;79;21034;-34
2021/01/28 07:43:34;;;;;;;;;;;;;;;1.80;96.03;98875.95;1782380;80;20954;-34
2021/01/28 07:46:33;;;;;;;41.50;18.87;;;;;;;1.90;96.04;98883.10;1851202;77;22913;-33
2021/01/28 07:49:21;;;;;;;33.92;18.70;;;;;;;1.89;96.01;98880.97;1822730;78;20899;-33
2021/01/28 07:52:22;;;;;;;38.17;20.00;;;;;;;1.91;95.98;98869.06;1823316;78;22768;-35
2021/01/28 07:54:52;;;;;;;41.50;19.45;;;;;;;1.94;95.98;98866.90;1823311;78;20926;-33
2021/01/28 07:57:42;;;;;;;36.38;18.95;;;;;;;1.96;95.98;98874.97;1823459;78;20939;-35
2021/01/28 08:00:15;;;;;;;36.58;18.87;;;;;;;1.97;95.93;98871.56;1823147;78;21061;-34
2021/01/28 08:02:43;;;;;;;35.55;17.95;;;;;;;2.00;95.88;98865.14;1823380;78;20998;-34
2021/01/28 08:05:22;;;;;;;33.15;18.00;;;;;;;2.05;95.89;98876.60;1792620;78;21413;-34
2021/01/28 08:08:10;;;;;;;43.48;19.73;;;;;;;2.07;95.91;98881.27;1823196;78;20970;-34
2021/01/28 08:10:41;;;;;;;40.08;18.30;;;;;;;2.09;95.92;98882.09;1823179;78;20903;-33
2021/01/28 08:13:20;;;;;;;42.27;18.25;;;;;;;2.13;95.89;98881.61;1823243;78;20983;-34
2021/01/28 08:16:06;;;;;;;35.63;17.05;;;;;;;2.17;95.86;98882.03;1823360;78;20911;-36
2021/01/28 08:18:43;;;;;;;41.08;18.80;;;;;;;2.21;95.85;98884.97;1822896;78;21431;-33
2021/01/28 08:21:22;;;;;;;33.02;17.05;;;;;;;2.25;95.89;98892.14;1823191;78;21125;-33
2021/01/28 08:23:50;;;;;;;32.00;17.42;;;;;;;2.29;95.89;98906.61;1823256;78;21037;-33
2021/01/28 08:26:33;;;;;;;42.58;19.20;;;;;;;2.29;95.87;98895.94;1823287;78;20974;-34
2021/01/28 08:29:14;;;;;;;40.33;19.15;;;;;;;2.32;95.82;98889.11;1823287;78;20911;-36
2021/01/28 08:31:49;;;;;;;39.80;20.15;;;;;;;2.33;95.80;98892.08;1823316;78;21414;-32
2021/01/28 08:34:21;;;;;;;42.93;20.77;;;;;;;2.36;95.79;98881.41;1823417;78;20958;-33
2021/01/28 08:36:59;;;;;;;42.33;19.17;;;;;;;2.38;95.77;98873.72;1792061;78;21038;-33
2021/01/28 08:39:31;;;;;;;32.48;18.92;;;;;;;2.41;95.78;98876.27;1823323;78;20986;-34
2021/01/28 08:42:14;;;;;;;48.63;20.05;;;;;;;2.41;95.77;98881.37;1823299;78;21394;-33
2021/01/28 08:44:45;;;;;;;45.28;20.08;;;;;;;2.42;95.77;98878.78;1819394;78;21195;-34
2021/01/28 08:47:21;;;;;;;40.43;18.82;;;;;;;2.46;95.80;98866.84;1809225;79;22133;-33
2021/01/28 08:50:07;;;;;;;45.28;18.52;;;;;;;2.49;95.75;98869.78;1809313;79;21596;-34
2021/01/28 08:52:35;;;;;;;46.45;19.67;;;;;;;2.52;95.77;98876.98;1809198;79;21034;-33
2021/01/28 08:55:15;;;;;;;42.08;18.50;;;;;;;2.54;95.78;98872.70;1809237;79;21054;-34
2021/01/28 08:57:42;;;;;;;43.90;19.75;;;;;;;2.57;95.82;98872.67;1807167;79;21379;-34
2021/01/28 09:00:13;;;;;;;42.03;19.62;;;;;;;2.63;95.81;98864.52;1786210;79;20923;-35
2021/01/28 09:02:44;;;;;;;38.30;18.37;;;;;;;2.69;95.86;98865.30;1786236;79;20999;-33
2021/01/28 09:05:30;;;;;;;45.83;19.10;;;;;;;2.78;95.85;98863.06;1808553;79;20991;-33
2021/01/28 09:08:06;;;;;;;43.45;16.82;;;;;;;2.87;95.80;98862.11;1808769;79;21509;-33
2021/01/28 09:10:41;;;;;;;47.93;18.20;;;;;;;2.96;95.81;98854.77;1808657;79;21374;-36
2021/01/28 09:13:26;;;;;;;49.40;19.98;;;;;;;3.04;95.81;98863.63;1786656;79;21446;-33
2021/01/28 09:16:18;;;;;;;42.75;17.70;;;;;;;3.10;95.76;98850.30;1808863;79;21009;-35
2021/01/28 09:18:49;;;;;;;47.67;16.32;;;;;;;3.12;95.67;98846.45;1808594;79;21038;-33
2021/01/28 09:21:24;;;;;;;40.45;17.95;;;;;;;3.14;95.57;98839.16;1808604;79;20927;-33
2021/01/28 09:24:07;;;;;;;39.92;16.48;;;;;;;3.19;95.51;98835.72;1808557;79;21427;-33
2021/01/28 09:26:36;;;;;;;42.73;18.60;;;;;;;3.23;95.52;98845.03;1808581;79;20986;-33
2021/01/28 09:29:21;;;;;;;46.98;18.98;;;;;;;3.26;95.49;98841.97;1808531;79;20915;-33
2021/01/28 09:31:50;;;;;;;42.27;15.80;;;;;;;3.31;95.47;98844.48;1808724;79;21050;-32
2021/01/28 09:34:29;;;;;;;52.40;17.73;;;;;;;3.35;95.38;98848.67;1808629;79;20975;-32
2021/01/28 09:37:07;;;;;;;58.20;17.75;;;;;;;3.36;95.18;98842.69;1808539;79;21199;-32
2021/01/28 09:39:43;;;;;;;46.00;18.45;;;;;;;3.35;95.05;98841.45;1807523;79;21034;-31
2021/01/28 09:42:33;;;;;;;45.45;18.98;;;;;;;3.33;95.01;98846.58;1808582;79;22342;-32
2021/01/28 09:45:10;;;;;;;45.60;17.67;;;;;;;3.30;94.96;98847.91;1808439;79;20975;-33
2021/01/28 09:47:38;;;;;;;50.73;20.40;;;;;;;3.28;94.89;98842.83;1808559;79;21062;-33
2021/01/28 09:50:10;;;;;;;41.92;18.05;;;;;;;3.25;94.84;98837.73;1808441;79;20982;-32
2021/01/28 09:52:43;;;;;;;45.45;18.80;;;;;;;3.23;94.82;98837.36;1808558;79;20983;-33
2021/01/28 09:55:22;;;;;;;44.20;18.17;;;;;;;3.20;94.80;98846.36;1808556;79;20963;-33
2021/01/28 09:57:51;;;;;;;47.70;18.10;;;;;;;3.18;94.80;98855.77;1808541;79;20872;-33
2021/01/28 10:00:21;;;;;;;34.08;14.75;;;;;;;3.19;94.77;98856.17;1808564;79;20959;-33
2021/01/28 10:02:58;;;;;;;41.40;16.27;;;;;;;3.18;94.73;98855.77;1808677;79;22422;-33
2021/01/28 10:05:29;;;;;;;49.58;18.10;;;;;;;3.12;94.69;98842.63;1808471;79;20990;-33
2021/01/28 10:07:58;;;;;;;36.58;15.72;;;;;;;3.13;94.78;98850.25;1808466;79;20983;-33
2021/01/28 10:10:30;;;;;;;35.48;15.55;;;;;;;3.13;94.79;98855.37;1808611;79;21403;-33
2021/01/28 10:13:00;;;;;;;38.08;16.57;;;;;;;3.16;94.80;98857.91;1808567;79;20991;-33
2021/01/28 10:15:28;;;;;;;36.00;15.83;;;;;;;3.16;94.80;98859.19;1808542;79;21265;-34
2021/01/28 10:17:59;;;;;;;44.33;16.65;;;;;;;3.21;94.89;98860.83;1808474;79;21014;-32
2021/01/28 10:20:32;;;;;;;39.45;15.70;;;;;;;3.23;94.93;98848.87;1808511;79;20971;-34
2021/01/28 10:23:02;;;;;;;32.67;13.55;;;;;;;3.26;94.88;98846.27;1808543;79;20907;-34
2021/01/28 10:25:30;;;;;;;33.13;13.93;;;;;;;3.26;94.87;98843.25;1808479;79;20924;-34
2021/01/28 10:28:00;;;;;;;36.88;15.25;;;;;;;3.27;94.86;98856.45;1808561;79;21474;-34
2021/01/28 10:30:28;;;;;;;35.00;14.65;;;;;;;3.27;94.93;98864.13;1808521;79;21015;-35
2021/01/28 10:32:57;;;;;;;35.95;14.87;;;;;;;3.30;94.90;98860.69;1808475;79;20940;-33
2021/01/28 10:35:29;;;;;;;40.70;13.35;;;;;;;3.32;94.88;98858.13;1786378;79;21071;-33
2021/01/28 10:38:00;;;;;;;29.57;13.98;;;;;;;3.35;94.88;98848.67;1808054;79;20876;-33
2021/01/28 10:40:30;;;;;;;33.63;13.68;;;;;;;3.38;94.87;98845.23;1808485;79;21378;-32
2021/01/28 10:43:06;;;;;;;28.20;11.10;;;;;;;3.40;94.84;98842.22;1808464;79;21006;-33
2021/01/28 10:45:38;;;;;;;25.82;11.22;;;;;;;3.38;94.75;98855.02;1807429;79;20991;-35
2021/01/28 10:48:08;;;;;;;27.48;12.03;;;;;;;3.39;94.73;98868.67;1808387;79;20971;-38
2021/01/28 10:50:38;;;;;;;25.32;10.48;;;;;;;3.36;94.67;98867.44;1808565;79;20936;-32
2021/01/28 10:53:07;;;;;;;22.13;9.78;;;;;;;3.34;94.68;98861.05;1808516;79;21358;-34
2021/01/28 10:55:36;;;;;;;24.98;8.98;;;;;;;3.35;94.68;98865.30;1808368;79;21002;-36
2021/01/28 10:58:05;;;;;;;19.02;8.68;;;;;;;3.39;94.70;98869.95;1808492;79;21022;-35
2021/01/28 11:00:34;;;;;;;17.75;7.42;;;;;;;3.41;94.55;98878.03;1808604;79;20916;-35
2021/01/28 11:03:04;;;;;;;9.05;4.78;;;;;;;3.42;94.47;98881.00;1808433;79;20927;-34
2021/01/28 11:05:35;;;;;;;6.37;3.35;;;;;;;3.40;94.17;98876.31;1808508;79;21135;-34
2021/01/28 11:08:04;;;;;;;9.93;4.50;;;;;;;3.37;93.67;98882.75;1808427;79;20939;-35
2021/01/28 11:10:33;;;;;;;36.30;16.67;;;;;;;3.37;93.35;98872.52;1808529;79;20908;-33
2021/01/28 11:13:01;;;;;;;14.18;3.20;;;;;;;3.37;93.21;98868.68;1808426;79;20915;-33
2021/01/28 11:15:33;;;;;;;14.03;3.22;;;;;;;3.37;92.71;98863.56;1785937;79;20998;-33
2021/01/28 11:18:01;;;;;;;12.05;2.70;;;;;;;3.34;91.72;98852.10;1808461;79;21464;-35
2021/01/28 11:20:31;;;;;;;17.77;1.67;;;;;;;3.33;90.91;98857.26;1808493;79;21562;-34
2021/01/28 11:23:00;;;;;;;20.55;2.20;;;;;;;3.28;89.88;98845.80;1808444;79;20994;-35
2021/01/28 11:25:28;;;;;;;17.48;1.80;;;;;;;3.27;89.73;98847.50;1808497;79;20975;-34
2021/01/28 11:27:58;;;;;;;7.25;1.72;;;;;;;3.25;89.80;98849.23;1808469;79;21038;-34
2021/01/28 11:30:29;;;;;;;16.97;1.87;;;;;;;3.23;89.21;98841.19;1808526;79;21314;-34
2021/01/28 11:32:56;;;;;;;11.68;1.67;;;;;;;3.10;87.89;98843.91;1808377;79;20971;-33
2021/01/28 11:35:28;;;;;;;6.25;1.75;;;;;;;3.04;87.83;98842.72;1808428;79;20971;-34
2021/01/28 11:37:55;;;;;;;18.20;2.35;;;;;;;2.96;87.21;98848.38;1808467;79;20991;-34
2021/01/28 11:40:25;;;;;;;20.35;3.25;;;;;;;2.90;87.56;98869.73;1808624;79;20924;-34
2021/01/28 11:42:53;;;;;;;8.93;1.90;;;;;;;2.81;87.34;98866.86;1808495;79;21431;-33
2021/01/28 11:45:25;;;;;;;5.30;2.10;;;;;;;2.74;87.49;98869.08;1808455;79;20940;-33
2021/01/28 11:47:54;;;;;;;5.83;1.35;;;;;;;2.71;87.45;98866.56;1814466;79;20915;-35
2021/01/28 11:50:22;;;;;;;5.12;1.30;;;;;;;2.68;87.35;98861.50;1814505;79;21458;-37
2021/01/28 11:52:50;;;;;;;6.67;1.42;;;;;;;2.69;87.52;98865.74;1814550;79;20907;-35
2021/01/28 11:55:21;;;;;;;1.65;1.10;;;;;;;2.69;87.56;98875.97;1814495;79;21212;-34
2021/01/28 11:57:51;;;;;;;5.08;1.30;;;;;;;2.70;87.56;98887.42;1814463;79;20896;-36
2021/01/28 12:00:20;;;;;;;2.45;1.00;;;;;;;2.72;87.10;98878.48;1814354;79;21509;-33
2021/01/28 12:02:48;;;;;;;2.35;1.12;;;;;;;2.71;86.93;98885.28;1814446;79;21038;-34
2021/01/28 12:05:20;;;;;;;1.25;1.00;;;;;;;2.75;86.96;98882.69;1814419;79;20978;-32
2021/01/28 12:07:50;;;;;;;1.45;0.90;;;;;;;2.76;86.37;98893.33;1814569;79;22627;-35
2021/01/28 12:10:19;;;;;;;2.87;0.75;;;;;;;2.74;86.41;98889.53;1814457;79;21050;-31
2021/01/28 12:12:47;;;;;;;1.12;0.93;;;;;;;2.71;86.32;98898.06;1814554;79;20971;-31